sensor_id;sensor_type;location;lat;lon;timestamp;P1;durP1;ratioP1;P2;durP2;ratioP2
85757;SDS011;76202;52.626;4.746;2024-02-28T00:02:22;7.43;;;2.00;;
85757;SDS011;76202;52.626;4.746;2024-02-28T00:04:48;6.43;;;1.77;;
85757;SDS011;76202;52.626;4.746;2024-02-28T00:07:13;6.20;;;1.60;;
85757;SDS011;76202;52.626;4.746;2024-02-28T00:09:39;5.50;;;1.52;;
85757;SDS011;76202;52.626;4.746;2024-02-28T00:12:04;5.78;;;1.75;;
85757;SDS011;76202;52.626;4.746;2024-02-28T00:14:30;6.30;;;1.80;;
85757;SDS011;76202;52.626;4.746;2024-02-28T00:16:55;5.90;;;1.67;;
85757;SDS011;76202;52.626;4.746;2024-02-28T00:19:20;7.95;;;1.95;;
85757;SDS011;76202;52.626;4.746;2024-02-28T00:21:47;6.97;;;1.85;;
85757;SDS011;76202;52.626;4.746;2024-02-28T00:24:13;5.63;;;1.70;;
85757;SDS011;76202;52.626;4.746;2024-02-28T00:26:41;7.65;;;1.90;;
85757;SDS011;76202;52.626;4.746;2024-02-28T00:29:07;5.10;;;1.60;;
85757;SDS011;76202;52.626;4.746;2024-02-28T00:31:33;6.43;;;1.70;;
85757;SDS011;76202;52.626;4.746;2024-02-28T00:33:59;6.30;;;1.67;;
85757;SDS011;76202;52.626;4.746;2024-02-28T00:36:24;6.32;;;1.67;;
85757;SDS011;76202;52.626;4.746;2024-02-28T00:38:49;6.97;;;1.80;;
85757;SDS011;76202;52.626;4.746;2024-02-28T00:41:15;6.50;;;1.67;;
85757;SDS011;76202;52.626;4.746;2024-02-28T00:43:40;5.82;;;1.65;;
85757;SDS011;76202;52.626;4.746;2024-02-28T00:46:05;6.93;;;1.90;;
85757;SDS011;76202;52.626;4.746;2024-02-28T00:48:36;6.75;;;1.70;;
85757;SDS011;76202;52.626;4.746;2024-02-28T00:51:01;7.05;;;1.85;;
85757;SDS011;76202;52.626;4.746;2024-02-28T00:53:27;6.40;;;1.63;;
85757;SDS011;76202;52.626;4.746;2024-02-28T00:55:52;5.97;;;1.80;;
85757;SDS011;76202;52.626;4.746;2024-02-28T00:58:18;5.97;;;1.70;;
85757;SDS011;76202;52.626;4.746;2024-02-28T01:00:43;5.55;;;1.60;;
85757;SDS011;76202;52.626;4.746;2024-02-28T01:03:08;6.22;;;1.55;;
85757;SDS011;76202;52.626;4.746;2024-02-28T01:05:36;6.38;;;1.50;;
85757;SDS011;76202;52.626;4.746;2024-02-28T01:08:01;6.10;;;1.70;;
85757;SDS011;76202;52.626;4.746;2024-02-28T01:10:27;9.20;;;1.75;;
85757;SDS011;76202;52.626;4.746;2024-02-28T01:12:52;5.72;;;1.60;;
85757;SDS011;76202;52.626;4.746;2024-02-28T01:15:17;5.30;;;1.67;;
85757;SDS011;76202;52.626;4.746;2024-02-28T01:17:43;6.00;;;1.70;;
85757;SDS011;76202;52.626;4.746;2024-02-28T01:20:09;7.10;;;1.73;;
85757;SDS011;76202;52.626;4.746;2024-02-28T01:22:35;5.00;;;1.60;;
85757;SDS011;76202;52.626;4.746;2024-02-28T01:25:00;6.07;;;1.70;;
85757;SDS011;76202;52.626;4.746;2024-02-28T01:27:28;5.95;;;1.70;;
85757;SDS011;76202;52.626;4.746;2024-02-28T01:29:53;5.65;;;1.60;;
85757;SDS011;76202;52.626;4.746;2024-02-28T01:32:19;6.63;;;1.65;;
85757;SDS011;76202;52.626;4.746;2024-02-28T01:34:44;5.85;;;1.70;;
85757;SDS011;76202;52.626;4.746;2024-02-28T01:37:11;5.07;;;1.60;;
85757;SDS011;76202;52.626;4.746;2024-02-28T01:39:36;6.22;;;1.73;;
85757;SDS011;76202;52.626;4.746;2024-02-28T01:42:01;5.20;;;1.70;;
85757;SDS011;76202;52.626;4.746;2024-02-28T01:44:27;7.38;;;1.55;;
85757;SDS011;76202;52.626;4.746;2024-02-28T01:46:53;5.68;;;1.70;;
85757;SDS011;76202;52.626;4.746;2024-02-28T01:49:21;4.68;;;1.35;;
85757;SDS011;76202;52.626;4.746;2024-02-28T01:51:47;6.15;;;1.73;;
85757;SDS011;76202;52.626;4.746;2024-02-28T01:54:13;8.00;;;1.70;;
85757;SDS011;76202;52.626;4.746;2024-02-28T01:56:39;5.55;;;1.70;;
85757;SDS011;76202;52.626;4.746;2024-02-28T01:59:05;5.47;;;1.50;;
85757;SDS011;76202;52.626;4.746;2024-02-28T02:01:30;5.97;;;1.70;;
85757;SDS011;76202;52.626;4.746;2024-02-28T02:03:56;7.00;;;1.60;;
85757;SDS011;76202;52.626;4.746;2024-02-28T02:06:21;6.85;;;1.60;;
85757;SDS011;76202;52.626;4.746;2024-02-28T02:08:47;6.40;;;1.60;;
85757;SDS011;76202;52.626;4.746;2024-02-28T02:11:17;5.85;;;1.60;;
85757;SDS011;76202;52.626;4.746;2024-02-28T02:13:48;4.78;;;1.50;;
85757;SDS011;76202;52.626;4.746;2024-02-28T02:16:15;4.97;;;1.50;;
85757;SDS011;76202;52.626;4.746;2024-02-28T02:18:40;5.97;;;1.50;;
85757;SDS011;76202;52.626;4.746;2024-02-28T02:21:05;5.20;;;1.58;;
85757;SDS011;76202;52.626;4.746;2024-02-28T02:23:31;6.38;;;1.52;;
85757;SDS011;76202;52.626;4.746;2024-02-28T02:25:57;3.35;;;1.50;;
85757;SDS011;76202;52.626;4.746;2024-02-28T02:28:23;6.10;;;1.50;;
85757;SDS011;76202;52.626;4.746;2024-02-28T02:30:48;5.05;;;1.40;;
85757;SDS011;76202;52.626;4.746;2024-02-28T02:33:13;3.80;;;1.30;;
85757;SDS011;76202;52.626;4.746;2024-02-28T02:35:39;5.10;;;1.48;;
85757;SDS011;76202;52.626;4.746;2024-02-28T02:38:04;7.32;;;1.50;;
85757;SDS011;76202;52.626;4.746;2024-02-28T02:40:30;4.43;;;1.45;;
85757;SDS011;76202;52.626;4.746;2024-02-28T02:42:55;4.80;;;1.50;;
85757;SDS011;76202;52.626;4.746;2024-02-28T02:45:21;6.00;;;1.42;;
85757;SDS011;76202;52.626;4.746;2024-02-28T02:47:46;4.63;;;1.60;;
85757;SDS011;76202;52.626;4.746;2024-02-28T02:50:11;7.28;;;1.70;;
85757;SDS011;76202;52.626;4.746;2024-02-28T02:52:37;5.38;;;1.50;;
85757;SDS011;76202;52.626;4.746;2024-02-28T02:55:02;5.93;;;1.50;;
85757;SDS011;76202;52.626;4.746;2024-02-28T02:57:28;6.55;;;1.40;;
85757;SDS011;76202;52.626;4.746;2024-02-28T02:59:55;4.72;;;1.30;;
85757;SDS011;76202;52.626;4.746;2024-02-28T03:02:21;4.78;;;1.33;;
85757;SDS011;76202;52.626;4.746;2024-02-28T03:04:46;5.35;;;1.50;;
85757;SDS011;76202;52.626;4.746;2024-02-28T03:07:12;4.78;;;1.40;;
85757;SDS011;76202;52.626;4.746;2024-02-28T03:09:37;5.32;;;1.50;;
85757;SDS011;76202;52.626;4.746;2024-02-28T03:12:03;6.07;;;1.52;;
85757;SDS011;76202;52.626;4.746;2024-02-28T03:14:28;5.00;;;1.45;;
85757;SDS011;76202;52.626;4.746;2024-02-28T03:16:54;4.88;;;1.38;;
85757;SDS011;76202;52.626;4.746;2024-02-28T03:19:19;4.47;;;1.20;;
85757;SDS011;76202;52.626;4.746;2024-02-28T03:21:45;4.60;;;1.52;;
85757;SDS011;76202;52.626;4.746;2024-02-28T03:24:10;4.90;;;1.58;;
85757;SDS011;76202;52.626;4.746;2024-02-28T03:26:36;5.63;;;1.45;;
85757;SDS011;76202;52.626;4.746;2024-02-28T03:29:01;5.53;;;1.45;;
85757;SDS011;76202;52.626;4.746;2024-02-28T03:31:27;5.57;;;1.73;;
85757;SDS011;76202;52.626;4.746;2024-02-28T03:33:52;4.40;;;1.50;;
85757;SDS011;76202;52.626;4.746;2024-02-28T03:36:18;5.13;;;1.40;;
85757;SDS011;76202;52.626;4.746;2024-02-28T03:38:43;8.70;;;1.60;;
85757;SDS011;76202;52.626;4.746;2024-02-28T03:41:08;4.25;;;1.30;;
85757;SDS011;76202;52.626;4.746;2024-02-28T03:43:34;4.60;;;1.40;;
85757;SDS011;76202;52.626;4.746;2024-02-28T03:45:59;4.30;;;1.40;;
85757;SDS011;76202;52.626;4.746;2024-02-28T03:48:25;5.18;;;1.42;;
85757;SDS011;76202;52.626;4.746;2024-02-28T03:50:50;4.95;;;1.42;;
85757;SDS011;76202;52.626;4.746;2024-02-28T03:53:15;4.43;;;1.30;;
85757;SDS011;76202;52.626;4.746;2024-02-28T03:55:41;4.85;;;1.42;;
85757;SDS011;76202;52.626;4.746;2024-02-28T03:58:08;6.25;;;1.50;;
85757;SDS011;76202;52.626;4.746;2024-02-28T04:00:34;6.03;;;1.70;;
85757;SDS011;76202;52.626;4.746;2024-02-28T04:03:00;3.92;;;1.40;;
85757;SDS011;76202;52.626;4.746;2024-02-28T04:05:26;5.88;;;1.58;;
85757;SDS011;76202;52.626;4.746;2024-02-28T04:07:51;6.78;;;1.55;;
85757;SDS011;76202;52.626;4.746;2024-02-28T04:10:16;5.28;;;1.42;;
85757;SDS011;76202;52.626;4.746;2024-02-28T04:12:42;5.35;;;1.50;;
85757;SDS011;76202;52.626;4.746;2024-02-28T04:15:10;5.18;;;1.50;;
85757;SDS011;76202;52.626;4.746;2024-02-28T04:17:36;4.65;;;1.50;;
85757;SDS011;76202;52.626;4.746;2024-02-28T04:20:02;7.35;;;1.77;;
85757;SDS011;76202;52.626;4.746;2024-02-28T04:22:29;5.70;;;1.42;;
85757;SDS011;76202;52.626;4.746;2024-02-28T04:24:56;6.50;;;1.60;;
85757;SDS011;76202;52.626;4.746;2024-02-28T04:27:21;6.15;;;1.50;;
85757;SDS011;76202;52.626;4.746;2024-02-28T04:29:47;4.60;;;1.40;;
85757;SDS011;76202;52.626;4.746;2024-02-28T04:32:12;4.72;;;1.40;;
85757;SDS011;76202;52.626;4.746;2024-02-28T04:34:38;5.57;;;1.42;;
85757;SDS011;76202;52.626;4.746;2024-02-28T04:37:03;5.18;;;1.40;;
85757;SDS011;76202;52.626;4.746;2024-02-28T04:39:29;5.32;;;1.50;;
85757;SDS011;76202;52.626;4.746;2024-02-28T04:41:54;5.05;;;1.40;;
85757;SDS011;76202;52.626;4.746;2024-02-28T04:44:20;4.57;;;1.40;;
85757;SDS011;76202;52.626;4.746;2024-02-28T04:46:45;4.22;;;1.33;;
85757;SDS011;76202;52.626;4.746;2024-02-28T04:49:10;6.72;;;1.52;;
85757;SDS011;76202;52.626;4.746;2024-02-28T04:51:36;7.03;;;1.50;;
85757;SDS011;76202;52.626;4.746;2024-02-28T04:54:01;3.75;;;1.23;;
85757;SDS011;76202;52.626;4.746;2024-02-28T04:56:26;4.35;;;1.50;;
85757;SDS011;76202;52.626;4.746;2024-02-28T04:58:52;6.30;;;1.50;;
85757;SDS011;76202;52.626;4.746;2024-02-28T05:01:17;5.50;;;1.48;;
85757;SDS011;76202;52.626;4.746;2024-02-28T05:03:42;5.68;;;1.48;;
85757;SDS011;76202;52.626;4.746;2024-02-28T05:06:08;5.93;;;1.33;;
85757;SDS011;76202;52.626;4.746;2024-02-28T05:08:33;4.47;;;1.33;;
85757;SDS011;76202;52.626;4.746;2024-02-28T05:11:01;4.50;;;1.30;;
85757;SDS011;76202;52.626;4.746;2024-02-28T05:13:26;4.90;;;1.35;;
85757;SDS011;76202;52.626;4.746;2024-02-28T05:15:52;5.80;;;1.40;;
85757;SDS011;76202;52.626;4.746;2024-02-28T05:18:17;3.42;;;1.23;;
85757;SDS011;76202;52.626;4.746;2024-02-28T05:20:42;5.45;;;1.42;;
85757;SDS011;76202;52.626;4.746;2024-02-28T05:23:08;6.20;;;1.40;;
85757;SDS011;76202;52.626;4.746;2024-02-28T05:25:33;3.97;;;1.40;;
85757;SDS011;76202;52.626;4.746;2024-02-28T05:27:58;3.63;;;1.30;;
85757;SDS011;76202;52.626;4.746;2024-02-28T05:30:24;4.95;;;1.38;;
85757;SDS011;76202;52.626;4.746;2024-02-28T05:32:49;5.50;;;1.40;;
85757;SDS011;76202;52.626;4.746;2024-02-28T05:35:15;3.75;;;1.15;;
85757;SDS011;76202;52.626;4.746;2024-02-28T05:37:40;4.80;;;1.52;;
85757;SDS011;76202;52.626;4.746;2024-02-28T05:40:06;4.60;;;1.27;;
85757;SDS011;76202;52.626;4.746;2024-02-28T05:42:32;4.93;;;1.40;;
85757;SDS011;76202;52.626;4.746;2024-02-28T05:44:58;3.08;;;1.23;;
85757;SDS011;76202;52.626;4.746;2024-02-28T05:47:24;5.13;;;1.42;;
85757;SDS011;76202;52.626;4.746;2024-02-28T05:49:50;6.78;;;1.50;;
85757;SDS011;76202;52.626;4.746;2024-02-28T05:52:15;3.55;;;1.40;;
85757;SDS011;76202;52.626;4.746;2024-02-28T05:54:40;5.28;;;1.48;;
85757;SDS011;76202;52.626;4.746;2024-02-28T05:57:06;4.72;;;1.30;;
85757;SDS011;76202;52.626;4.746;2024-02-28T05:59:31;4.30;;;1.40;;
85757;SDS011;76202;52.626;4.746;2024-02-28T06:01:57;4.53;;;1.20;;
85757;SDS011;76202;52.626;4.746;2024-02-28T06:04:22;2.88;;;1.10;;
85757;SDS011;76202;52.626;4.746;2024-02-28T06:06:48;4.13;;;1.15;;
85757;SDS011;76202;52.626;4.746;2024-02-28T06:09:15;5.95;;;1.45;;
85757;SDS011;76202;52.626;4.746;2024-02-28T06:11:40;3.60;;;1.13;;
85757;SDS011;76202;52.626;4.746;2024-02-28T06:14:06;3.22;;;1.20;;
85757;SDS011;76202;52.626;4.746;2024-02-28T06:16:32;2.63;;;1.15;;
85757;SDS011;76202;52.626;4.746;2024-02-28T06:18:57;5.80;;;1.60;;
85757;SDS011;76202;52.626;4.746;2024-02-28T06:21:22;4.70;;;1.17;;
85757;SDS011;76202;52.626;4.746;2024-02-28T06:23:48;5.50;;;1.30;;
85757;SDS011;76202;52.626;4.746;2024-02-28T06:26:13;5.18;;;1.30;;
85757;SDS011;76202;52.626;4.746;2024-02-28T06:28:45;3.75;;;1.20;;
85757;SDS011;76202;52.626;4.746;2024-02-28T06:31:17;6.13;;;1.35;;
85757;SDS011;76202;52.626;4.746;2024-02-28T06:33:45;4.35;;;1.40;;
85757;SDS011;76202;52.626;4.746;2024-02-28T06:36:11;3.28;;;1.13;;
85757;SDS011;76202;52.626;4.746;2024-02-28T06:38:36;2.78;;;1.08;;
85757;SDS011;76202;52.626;4.746;2024-02-28T06:41:05;4.40;;;1.20;;
85757;SDS011;76202;52.626;4.746;2024-02-28T06:43:33;4.45;;;1.20;;
85757;SDS011;76202;52.626;4.746;2024-02-28T06:45:59;4.47;;;1.30;;
85757;SDS011;76202;52.626;4.746;2024-02-28T06:48:24;7.03;;;1.42;;
85757;SDS011;76202;52.626;4.746;2024-02-28T06:50:50;10.73;;;1.20;;
85757;SDS011;76202;52.626;4.746;2024-02-28T06:53:15;4.47;;;1.13;;
85757;SDS011;76202;52.626;4.746;2024-02-28T06:55:40;3.00;;;1.10;;
85757;SDS011;76202;52.626;4.746;2024-02-28T06:58:06;5.20;;;1.30;;
85757;SDS011;76202;52.626;4.746;2024-02-28T07:00:31;4.32;;;1.27;;
85757;SDS011;76202;52.626;4.746;2024-02-28T07:02:56;5.72;;;1.20;;
85757;SDS011;76202;52.626;4.746;2024-02-28T07:05:22;4.07;;;1.30;;
85757;SDS011;76202;52.626;4.746;2024-02-28T07:07:47;5.47;;;1.30;;
85757;SDS011;76202;52.626;4.746;2024-02-28T07:10:12;3.50;;;1.10;;
85757;SDS011;76202;52.626;4.746;2024-02-28T07:12:38;3.33;;;1.05;;
85757;SDS011;76202;52.626;4.746;2024-02-28T07:15:04;5.22;;;1.25;;
85757;SDS011;76202;52.626;4.746;2024-02-28T07:17:30;5.43;;;1.23;;
85757;SDS011;76202;52.626;4.746;2024-02-28T07:19:55;4.32;;;1.30;;
85757;SDS011;76202;52.626;4.746;2024-02-28T07:22:20;4.88;;;1.20;;
85757;SDS011;76202;52.626;4.746;2024-02-28T07:24:46;3.63;;;1.15;;
85757;SDS011;76202;52.626;4.746;2024-02-28T07:27:11;6.57;;;1.60;;
85757;SDS011;76202;52.626;4.746;2024-02-28T07:29:37;4.95;;;1.27;;
85757;SDS011;76202;52.626;4.746;2024-02-28T07:32:02;4.22;;;1.20;;
85757;SDS011;76202;52.626;4.746;2024-02-28T07:34:28;6.40;;;1.40;;
85757;SDS011;76202;52.626;4.746;2024-02-28T07:36:53;10.23;;;1.60;;
85757;SDS011;76202;52.626;4.746;2024-02-28T07:39:18;8.13;;;1.63;;
85757;SDS011;76202;52.626;4.746;2024-02-28T07:41:45;8.38;;;1.80;;
85757;SDS011;76202;52.626;4.746;2024-02-28T07:44:11;7.03;;;1.50;;
85757;SDS011;76202;52.626;4.746;2024-02-28T07:46:36;5.53;;;1.50;;
85757;SDS011;76202;52.626;4.746;2024-02-28T07:49:02;9.18;;;1.50;;
85757;SDS011;76202;52.626;4.746;2024-02-28T07:51:28;4.55;;;1.30;;
85757;SDS011;76202;52.626;4.746;2024-02-28T07:53:53;12.60;;;1.52;;
85757;SDS011;76202;52.626;4.746;2024-02-28T07:56:19;5.60;;;1.40;;
85757;SDS011;76202;52.626;4.746;2024-02-28T07:58:46;5.13;;;1.33;;
85757;SDS011;76202;52.626;4.746;2024-02-28T08:01:12;5.38;;;1.40;;
85757;SDS011;76202;52.626;4.746;2024-02-28T08:03:37;5.07;;;1.33;;
85757;SDS011;76202;52.626;4.746;2024-02-28T08:06:03;7.22;;;1.50;;
85757;SDS011;76202;52.626;4.746;2024-02-28T08:08:29;5.05;;;1.38;;
85757;SDS011;76202;52.626;4.746;2024-02-28T08:10:55;6.45;;;1.48;;
85757;SDS011;76202;52.626;4.746;2024-02-28T08:13:20;4.70;;;1.40;;
85757;SDS011;76202;52.626;4.746;2024-02-28T08:15:46;4.22;;;1.23;;
85757;SDS011;76202;52.626;4.746;2024-02-28T08:18:11;4.72;;;1.40;;
85757;SDS011;76202;52.626;4.746;2024-02-28T08:20:37;3.08;;;1.02;;
85757;SDS011;76202;52.626;4.746;2024-02-28T08:23:03;5.43;;;1.40;;
85757;SDS011;76202;52.626;4.746;2024-02-28T08:25:29;5.57;;;1.35;;
85757;SDS011;76202;52.626;4.746;2024-02-28T08:27:54;6.22;;;2.20;;
85757;SDS011;76202;52.626;4.746;2024-02-28T08:30:20;6.13;;;1.52;;
85757;SDS011;76202;52.626;4.746;2024-02-28T08:32:45;4.65;;;1.17;;
85757;SDS011;76202;52.626;4.746;2024-02-28T08:35:11;5.93;;;1.42;;
85757;SDS011;76202;52.626;4.746;2024-02-28T08:37:39;5.90;;;1.40;;
85757;SDS011;76202;52.626;4.746;2024-02-28T08:40:05;5.35;;;1.38;;
85757;SDS011;76202;52.626;4.746;2024-02-28T08:42:32;5.82;;;1.40;;
85757;SDS011;76202;52.626;4.746;2024-02-28T08:44:57;4.85;;;1.25;;
85757;SDS011;76202;52.626;4.746;2024-02-28T08:47:25;7.32;;;1.50;;
85757;SDS011;76202;52.626;4.746;2024-02-28T08:49:54;5.75;;;1.50;;
85757;SDS011;76202;52.626;4.746;2024-02-28T08:52:20;5.07;;;1.40;;
85757;SDS011;76202;52.626;4.746;2024-02-28T08:54:46;5.57;;;1.40;;
85757;SDS011;76202;52.626;4.746;2024-02-28T08:57:12;5.90;;;1.35;;
85757;SDS011;76202;52.626;4.746;2024-02-28T08:59:38;5.75;;;1.23;;
85757;SDS011;76202;52.626;4.746;2024-02-28T09:02:05;5.88;;;1.42;;
85757;SDS011;76202;52.626;4.746;2024-02-28T09:04:31;7.10;;;1.70;;
85757;SDS011;76202;52.626;4.746;2024-02-28T09:06:56;6.05;;;1.50;;
85757;SDS011;76202;52.626;4.746;2024-02-28T09:09:22;4.43;;;1.10;;
85757;SDS011;76202;52.626;4.746;2024-02-28T09:11:47;5.90;;;1.55;;
85757;SDS011;76202;52.626;4.746;2024-02-28T09:14:13;6.95;;;1.50;;
85757;SDS011;76202;52.626;4.746;2024-02-28T09:16:38;4.88;;;1.20;;
85757;SDS011;76202;52.626;4.746;2024-02-28T09:19:04;5.97;;;1.40;;
85757;SDS011;76202;52.626;4.746;2024-02-28T09:21:29;5.75;;;1.40;;
85757;SDS011;76202;52.626;4.746;2024-02-28T09:23:55;7.75;;;1.45;;
85757;SDS011;76202;52.626;4.746;2024-02-28T09:26:20;6.93;;;1.55;;
85757;SDS011;76202;52.626;4.746;2024-02-28T09:28:45;6.95;;;1.75;;
85757;SDS011;76202;52.626;4.746;2024-02-28T09:31:11;4.22;;;1.30;;
85757;SDS011;76202;52.626;4.746;2024-02-28T09:33:36;3.90;;;1.17;;
85757;SDS011;76202;52.626;4.746;2024-02-28T09:36:02;6.43;;;1.23;;
85757;SDS011;76202;52.626;4.746;2024-02-28T09:38:28;6.32;;;1.60;;
85757;SDS011;76202;52.626;4.746;2024-02-28T09:40:54;7.38;;;1.50;;
85757;SDS011;76202;52.626;4.746;2024-02-28T09:43:24;5.40;;;1.20;;
85757;SDS011;76202;52.626;4.746;2024-02-28T09:45:56;4.47;;;1.35;;
85757;SDS011;76202;52.626;4.746;2024-02-28T09:48:25;4.50;;;1.20;;
85757;SDS011;76202;52.626;4.746;2024-02-28T09:50:54;5.78;;;1.40;;
85757;SDS011;76202;52.626;4.746;2024-02-28T09:53:20;5.78;;;1.60;;
85757;SDS011;76202;52.626;4.746;2024-02-28T09:55:47;4.55;;;1.30;;
85757;SDS011;76202;52.626;4.746;2024-02-28T09:58:14;5.68;;;1.35;;
85757;SDS011;76202;52.626;4.746;2024-02-28T10:00:40;6.70;;;1.40;;
85757;SDS011;76202;52.626;4.746;2024-02-28T10:03:09;4.63;;;1.50;;
85757;SDS011;76202;52.626;4.746;2024-02-28T10:05:38;7.00;;;1.30;;
85757;SDS011;76202;52.626;4.746;2024-02-28T10:08:04;3.72;;;1.30;;
85757;SDS011;76202;52.626;4.746;2024-02-28T10:10:30;4.40;;;1.27;;
85757;SDS011;76202;52.626;4.746;2024-02-28T10:12:56;6.47;;;1.48;;
85757;SDS011;76202;52.626;4.746;2024-02-28T10:15:22;5.50;;;1.52;;
85757;SDS011;76202;52.626;4.746;2024-02-28T10:17:47;6.45;;;1.40;;
85757;SDS011;76202;52.626;4.746;2024-02-28T10:20:13;4.78;;;1.25;;
85757;SDS011;76202;52.626;4.746;2024-02-28T10:22:39;5.60;;;1.50;;
85757;SDS011;76202;52.626;4.746;2024-02-28T10:25:05;4.47;;;1.15;;
85757;SDS011;76202;52.626;4.746;2024-02-28T10:27:34;6.28;;;1.80;;
85757;SDS011;76202;52.626;4.746;2024-02-28T10:30:00;8.50;;;1.40;;
85757;SDS011;76202;52.626;4.746;2024-02-28T10:32:30;3.25;;;1.17;;
85757;SDS011;76202;52.626;4.746;2024-02-28T10:35:00;5.13;;;1.60;;
85757;SDS011;76202;52.626;4.746;2024-02-28T10:37:26;5.97;;;1.40;;
85757;SDS011;76202;52.626;4.746;2024-02-28T10:39:56;6.38;;;1.50;;
85757;SDS011;76202;52.626;4.746;2024-02-28T10:42:22;5.20;;;1.60;;
85757;SDS011;76202;52.626;4.746;2024-02-28T10:44:51;4.13;;;1.23;;
85757;SDS011;76202;52.626;4.746;2024-02-28T10:47:18;5.55;;;1.30;;
85757;SDS011;76202;52.626;4.746;2024-02-28T10:49:44;4.47;;;1.30;;
85757;SDS011;76202;52.626;4.746;2024-02-28T10:52:10;3.90;;;1.48;;
85757;SDS011;76202;52.626;4.746;2024-02-28T10:54:39;5.13;;;1.55;;
85757;SDS011;76202;52.626;4.746;2024-02-28T10:57:07;7.03;;;1.58;;
85757;SDS011;76202;52.626;4.746;2024-02-28T10:59:33;5.38;;;1.50;;
85757;SDS011;76202;52.626;4.746;2024-02-28T11:02:02;7.55;;;1.77;;
85757;SDS011;76202;52.626;4.746;2024-02-28T11:04:28;6.47;;;1.80;;
85757;SDS011;76202;52.626;4.746;2024-02-28T11:06:54;7.10;;;1.70;;
85757;SDS011;76202;52.626;4.746;2024-02-28T11:09:21;5.68;;;1.65;;
85757;SDS011;76202;52.626;4.746;2024-02-28T11:11:50;5.53;;;1.65;;
85757;SDS011;76202;52.626;4.746;2024-02-28T11:14:16;8.50;;;1.83;;
85757;SDS011;76202;52.626;4.746;2024-02-28T11:16:42;6.78;;;1.70;;
85757;SDS011;76202;52.626;4.746;2024-02-28T11:19:18;5.50;;;1.60;;
85757;SDS011;76202;52.626;4.746;2024-02-28T11:21:54;6.82;;;1.60;;
85757;SDS011;76202;52.626;4.746;2024-02-28T11:24:30;5.82;;;1.60;;
85757;SDS011;76202;52.626;4.746;2024-02-28T11:26:56;5.80;;;1.60;;
85757;SDS011;76202;52.626;4.746;2024-02-28T11:29:25;6.82;;;1.60;;
85757;SDS011;76202;52.626;4.746;2024-02-28T11:31:52;6.30;;;1.88;;
85757;SDS011;76202;52.626;4.746;2024-02-28T11:34:18;7.13;;;1.80;;
85757;SDS011;76202;52.626;4.746;2024-02-28T11:36:46;6.82;;;1.80;;
85757;SDS011;76202;52.626;4.746;2024-02-28T11:39:15;7.50;;;1.60;;
85757;SDS011;76202;52.626;4.746;2024-02-28T11:41:41;12.18;;;1.98;;
85757;SDS011;76202;52.626;4.746;2024-02-28T11:44:11;7.40;;;1.95;;
85757;SDS011;76202;52.626;4.746;2024-02-28T11:46:36;6.47;;;1.63;;
85757;SDS011;76202;52.626;4.746;2024-02-28T11:49:02;7.53;;;1.60;;
85757;SDS011;76202;52.626;4.746;2024-02-28T11:51:28;8.45;;;1.98;;
85757;SDS011;76202;52.626;4.746;2024-02-28T11:53:54;7.43;;;1.60;;
85757;SDS011;76202;52.626;4.746;2024-02-28T11:56:19;7.75;;;2.17;;
85757;SDS011;76202;52.626;4.746;2024-02-28T11:58:50;6.18;;;1.88;;
85757;SDS011;76202;52.626;4.746;2024-02-28T12:01:19;8.98;;;1.85;;
85757;SDS011;76202;52.626;4.746;2024-02-28T12:03:56;5.88;;;1.80;;
85757;SDS011;76202;52.626;4.746;2024-02-28T12:06:22;8.15;;;1.88;;
85757;SDS011;76202;52.626;4.746;2024-02-28T12:08:48;7.38;;;1.95;;
85757;SDS011;76202;52.626;4.746;2024-02-28T12:11:13;10.75;;;2.20;;
85757;SDS011;76202;52.626;4.746;2024-02-28T12:13:39;8.07;;;1.85;;
85757;SDS011;76202;52.626;4.746;2024-02-28T12:16:04;7.93;;;2.17;;
85757;SDS011;76202;52.626;4.746;2024-02-28T12:18:30;8.05;;;2.00;;
85757;SDS011;76202;52.626;4.746;2024-02-28T12:20:55;8.85;;;1.80;;
85757;SDS011;76202;52.626;4.746;2024-02-28T12:23:20;10.35;;;2.10;;
85757;SDS011;76202;52.626;4.746;2024-02-28T12:25:46;12.82;;;2.50;;
85757;SDS011;76202;52.626;4.746;2024-02-28T12:28:11;7.15;;;1.85;;
85757;SDS011;76202;52.626;4.746;2024-02-28T12:30:41;9.13;;;2.00;;
85757;SDS011;76202;52.626;4.746;2024-02-28T12:33:10;8.88;;;2.22;;
85757;SDS011;76202;52.626;4.746;2024-02-28T12:35:36;7.53;;;1.80;;
85757;SDS011;76202;52.626;4.746;2024-02-28T12:38:02;7.15;;;1.83;;
85757;SDS011;76202;52.626;4.746;2024-02-28T12:40:27;10.27;;;2.17;;
85757;SDS011;76202;52.626;4.746;2024-02-28T12:42:53;7.85;;;1.85;;
85757;SDS011;76202;52.626;4.746;2024-02-28T12:45:18;5.93;;;1.67;;
85757;SDS011;76202;52.626;4.746;2024-02-28T12:47:43;8.75;;;2.50;;
85757;SDS011;76202;52.626;4.746;2024-02-28T12:50:09;9.75;;;2.13;;
85757;SDS011;76202;52.626;4.746;2024-02-28T12:52:36;7.20;;;1.90;;
85757;SDS011;76202;52.626;4.746;2024-02-28T12:55:01;10.57;;;2.40;;
85757;SDS011;76202;52.626;4.746;2024-02-28T12:57:27;7.65;;;1.92;;
85757;SDS011;76202;52.626;4.746;2024-02-28T12:59:53;10.65;;;2.10;;
85757;SDS011;76202;52.626;4.746;2024-02-28T13:02:18;9.90;;;1.92;;
85757;SDS011;76202;52.626;4.746;2024-02-28T13:04:44;10.40;;;2.03;;
85757;SDS011;76202;52.626;4.746;2024-02-28T13:07:10;7.53;;;1.90;;
85757;SDS011;76202;52.626;4.746;2024-02-28T13:09:35;5.85;;;1.73;;
85757;SDS011;76202;52.626;4.746;2024-02-28T13:12:01;7.65;;;2.20;;
85757;SDS011;76202;52.626;4.746;2024-02-28T13:14:27;8.20;;;1.85;;
85757;SDS011;76202;52.626;4.746;2024-02-28T13:16:52;5.78;;;1.70;;
85757;SDS011;76202;52.626;4.746;2024-02-28T13:19:19;8.77;;;2.00;;
85757;SDS011;76202;52.626;4.746;2024-02-28T13:21:45;8.15;;;1.90;;
85757;SDS011;76202;52.626;4.746;2024-02-28T13:24:10;6.55;;;1.85;;
85757;SDS011;76202;52.626;4.746;2024-02-28T13:26:36;7.75;;;2.20;;
85757;SDS011;76202;52.626;4.746;2024-02-28T13:29:01;8.43;;;1.92;;
85757;SDS011;76202;52.626;4.746;2024-02-28T13:31:27;5.43;;;1.50;;
85757;SDS011;76202;52.626;4.746;2024-02-28T13:33:53;5.40;;;1.73;;
85757;SDS011;76202;52.626;4.746;2024-02-28T13:36:18;7.15;;;1.80;;
85757;SDS011;76202;52.626;4.746;2024-02-28T13:38:44;9.32;;;2.20;;
85757;SDS011;76202;52.626;4.746;2024-02-28T13:41:09;10.98;;;1.85;;
85757;SDS011;76202;52.626;4.746;2024-02-28T13:43:35;8.00;;;1.63;;
85757;SDS011;76202;52.626;4.746;2024-02-28T13:46:00;6.45;;;1.60;;
85757;SDS011;76202;52.626;4.746;2024-02-28T13:48:26;8.18;;;1.88;;
85757;SDS011;76202;52.626;4.746;2024-02-28T13:50:53;8.57;;;1.88;;
85757;SDS011;76202;52.626;4.746;2024-02-28T13:53:19;9.15;;;2.22;;
85757;SDS011;76202;52.626;4.746;2024-02-28T13:55:45;7.55;;;1.83;;
85757;SDS011;76202;52.626;4.746;2024-02-28T13:58:11;5.85;;;1.75;;
85757;SDS011;76202;52.626;4.746;2024-02-28T14:00:37;6.65;;;1.80;;
85757;SDS011;76202;52.626;4.746;2024-02-28T14:03:03;8.85;;;2.05;;
85757;SDS011;76202;52.626;4.746;2024-02-28T14:05:29;7.82;;;1.92;;
85757;SDS011;76202;52.626;4.746;2024-02-28T14:07:55;8.80;;;1.90;;
85757;SDS011;76202;52.626;4.746;2024-02-28T14:10:21;6.40;;;1.77;;
85757;SDS011;76202;52.626;4.746;2024-02-28T14:12:47;6.63;;;1.73;;
85757;SDS011;76202;52.626;4.746;2024-02-28T14:15:13;6.90;;;1.80;;
85757;SDS011;76202;52.626;4.746;2024-02-28T14:17:39;6.43;;;1.73;;
85757;SDS011;76202;52.626;4.746;2024-02-28T14:20:05;6.72;;;1.73;;
85757;SDS011;76202;52.626;4.746;2024-02-28T14:22:31;5.50;;;1.50;;
85757;SDS011;76202;52.626;4.746;2024-02-28T14:24:57;5.95;;;1.52;;
85757;SDS011;76202;52.626;4.746;2024-02-28T14:27:24;6.32;;;1.60;;
85757;SDS011;76202;52.626;4.746;2024-02-28T14:29:50;5.65;;;1.65;;
85757;SDS011;76202;52.626;4.746;2024-02-28T14:32:16;7.60;;;1.60;;
85757;SDS011;76202;52.626;4.746;2024-02-28T14:34:41;5.10;;;1.50;;
85757;SDS011;76202;52.626;4.746;2024-02-28T14:37:06;6.47;;;1.85;;
85757;SDS011;76202;52.626;4.746;2024-02-28T14:39:32;6.72;;;1.77;;
85757;SDS011;76202;52.626;4.746;2024-02-28T14:41:58;7.47;;;1.77;;